Time;durP1;ratioP1;P1;durP2;ratioP2;P2;SDS_P1;SDS_P2;PMS_P1;PMS_P2;Temp;Humidity;BMP_temperature;BMP_pressure;BME280_temperature;BME280_humidity;BME280_pressure;Samples;Min_cycle;Max_cycle;Signal;HPM_P1;HPM_P2
2022/03/12 00:02:23;;;;;;;;;25.00;23.00;;;;;21.53;31.88;102604.50;110244;1264;19505;-49
2022/03/12 00:04:50;;;;;;;;;24.67;24.00;;;;;21.54;31.69;102602.30;110223;1264;19145;-49
2022/03/12 00:07:17;;;;;;;;;25.00;24.00;;;;;21.54;31.97;102601.04;110243;1265;19282;-48
2022/03/12 00:09:44;;;;;;;;;23.67;22.00;;;;;21.53;31.79;102599.98;110259;1264;19954;-52
2022/03/12 00:12:15;;;;;;;;;23.50;22.00;;;;;21.53;31.83;102598.20;110260;1264;18805;-46
2022/03/12 00:14:46;;;;;;;;;21.33;20.67;;;;;21.54;31.78;102601.17;110248;1264;18955;-49
2022/03/12 00:17:15;;;;;;;;;25.00;23.33;;;;;21.53;31.68;102601.77;110183;1264;19469;-49
2022/03/12 00:19:42;;;;;;;;;28.00;23.67;;;;;21.53;32.01;102600.20;110268;1264;18703;-48
2022/03/12 00:22:11;;;;;;;;;26.33;21.67;;;;;21.53;31.83;102605.32;110241;1264;19421;-49
2022/03/12 00:24:40;;;;;;;;;26.00;23.00;;;;;21.52;31.85;102608.96;110313;1264;21510;-49
2022/03/12 00:27:09;;;;;;;;;24.00;21.00;;;;;21.54;31.85;102607.89;110237;1264;19991;-49
2022/03/12 00:29:37;;;;;;;;;29.67;26.00;;;;;21.54;31.80;102605.58;110342;1262;19418;-50
2022/03/12 00:32:05;;;;;;;;;23.33;21.00;;;;;21.54;31.66;102603.39;110345;1262;19614;-55
2022/03/12 00:34:32;;;;;;;;;24.33;22.67;;;;;21.54;31.83;102601.41;110395;1261;21683;-51
2022/03/12 00:36:59;;;;;;;;;25.67;22.67;;;;;21.54;31.75;102598.83;110405;1262;18916;-50
2022/03/12 00:39:27;;;;;;;;;31.00;24.00;;;;;21.55;31.69;102599.30;110423;1261;19999;-48
2022/03/12 00:41:54;;;;;;;;;26.33;24.67;;;;;21.54;31.76;102599.17;110364;1261;21508;-50
2022/03/12 00:44:21;;;;;;;;;23.67;23.33;;;;;21.55;31.84;102596.95;110392;1261;18871;-49
2022/03/12 00:46:48;;;;;;;;;31.50;26.00;;;;;21.55;31.76;102594.20;110353;1261;19342;-48
2022/03/12 00:49:15;;;;;;;;;24.00;23.00;;;;;21.54;31.58;102595.52;110373;1262;19031;-51
2022/03/12 00:51:44;;;;;;;;;23.00;22.00;;;;;21.54;31.63;102597.52;110392;1262;18834;-49
2022/03/12 00:54:12;;;;;;;;;28.67;24.00;;;;;21.54;31.66;102597.18;110444;1262;22473;-49
2022/03/12 00:56:39;;;;;;;;;26.33;25.33;;;;;21.54;31.64;102602.84;110389;1262;19170;-49
2022/03/12 00:59:07;;;;;;;;;29.67;25.33;;;;;21.54;31.78;102607.93;110388;1261;22803;-48
2022/03/12 01:01:34;;;;;;;;;25.33;23.33;;;;;21.54;31.84;102606.84;110392;1261;21804;-49
2022/03/12 01:04:01;;;;;;;;;24.67;21.33;;;;;21.54;31.75;102604.22;110386;1261;18746;-48
2022/03/12 01:06:29;;;;;;;;;27.00;24.00;;;;;21.53;31.70;102605.64;110434;1262;18843;-48
2022/03/12 01:08:56;;;;;;;;;25.00;23.50;;;;;21.54;31.71;102606.15;110376;1261;19758;-51
2022/03/12 01:11:23;;;;;;;;;27.67;24.67;;;;;21.53;31.55;102599.13;110414;1261;19113;-47
2022/03/12 01:13:50;;;;;;;;;23.50;22.50;;;;;21.52;31.70;102595.91;110370;1261;18740;-50
2022/03/12 01:16:18;;;;;;;;;29.33;24.67;;;;;21.51;31.65;102596.19;110369;1262;19617;-50
2022/03/12 01:18:46;;;;;;;;;21.00;21.00;;;;;21.51;31.83;102592.92;110444;1262;19989;-48
2022/03/12 01:21:17;;;;;;;;;24.00;23.33;;;;;21.50;31.78;102597.33;109881;1262;749242;-47
2022/03/12 01:23:44;;;;;;;;;24.33;22.00;;;;;21.50;31.67;102590.84;110339;1261;20201;-49
2022/03/12 01:26:11;;;;;;;;;23.33;22.67;;;;;21.49;31.88;102590.52;110287;1262;18644;-49
2022/03/12 01:28:39;;;;;;;;;26.00;22.50;;;;;21.48;31.69;102589.52;110383;1262;18812;-50
2022/03/12 01:31:06;;;;;;;;;31.00;24.33;;;;;21.48;31.68;102597.05;110224;1262;20922;-48
2022/03/12 01:33:33;;;;;;;;;22.33;22.33;;;;;21.48;31.71;102596.50;110347;1261;18769;-49
2022/03/12 01:36:00;;;;;;;;;23.00;23.00;;;;;21.46;31.73;102589.15;110277;1262;19051;-51
2022/03/12 01:38:28;;;;;;;;;26.67;21.33;;;;;21.46;31.81;102590.95;110289;1262;19708;-48
2022/03/12 01:40:55;;;;;;;;;28.00;22.67;;;;;21.46;31.64;102594.61;110319;1262;18797;-50
2022/03/12 01:43:22;;;;;;;;;29.00;25.00;;;;;21.46;31.76;102589.38;110243;1262;19348;-50
2022/03/12 01:45:49;;;;;;;;;25.00;24.00;;;;;21.46;31.62;102584.84;110290;1262;20482;-50
2022/03/12 01:48:17;;;;;;;;;25.67;25.00;;;;;21.47;31.90;102583.99;110351;1262;19007;-50
2022/03/12 01:50:44;;;;;;;;;27.50;24.00;;;;;21.47;31.69;102581.66;110295;1262;18984;-49
2022/03/12 01:53:11;;;;;;;;;31.67;24.67;;;;;21.46;31.68;102581.14;110336;1262;21016;-50
2022/03/12 01:55:39;;;;;;;;;29.50;25.00;;;;;21.46;31.53;102577.84;110380;1261;18649;-49
2022/03/12 01:58:07;;;;;;;;;25.00;24.00;;;;;21.47;31.72;102579.79;110408;1261;19107;-49
2022/03/12 02:00:36;;;;;;;;;24.67;22.00;;;;;21.47;31.58;102580.86;110455;1261;19491;-49
2022/03/12 02:03:03;;;;;;;;;28.00;26.50;;;;;21.46;31.68;102573.56;110306;1262;18899;-49
2022/03/12 02:05:31;;;;;;;;;26.00;24.00;;;;;21.47;31.69;102569.63;110357;1261;24027;-49
2022/03/12 02:07:59;;;;;;;;;26.00;25.33;;;;;21.46;31.56;102564.77;110334;1262;19712;-48
2022/03/12 02:10:26;;;;;;;;;25.00;24.00;;;;;21.45;31.49;102565.95;110366;1261;18713;-50
2022/03/12 02:12:54;;;;;;;;;31.67;25.67;;;;;21.46;31.69;102566.41;110405;1261;19242;-49
2022/03/12 02:15:21;;;;;;;;;28.67;25.00;;;;;21.46;31.59;102563.52;110430;1262;19588;-49
2022/03/12 02:17:48;;;;;;;;;24.33;23.00;;;;;21.47;31.72;102561.45;110378;1262;18830;-48
2022/03/12 02:20:16;;;;;;;;;28.00;26.00;;;;;21.46;31.68;102560.98;110386;1262;18864;-49
2022/03/12 02:22:45;;;;;;;;;28.00;27.67;;;;;21.47;31.58;102547.64;110341;1262;19547;-49
2022/03/12 02:25:12;;;;;;;;;24.33;23.00;;;;;21.46;31.57;102546.81;110383;1262;19020;-49
2022/03/12 02:27:48;;;;;;;;;31.00;22.67;;;;;21.46;31.64;102543.15;110369;1262;18744;-51
2022/03/12 02:30:16;;;;;;;;;25.00;25.00;;;;;21.45;31.72;102543.20;110210;1262;19627;-54
2022/03/12 02:32:45;;;;;;;;;25.67;24.33;;;;;21.44;31.51;102539.49;110323;1262;19108;-48
2022/03/12 02:35:13;;;;;;;;;24.33;21.67;;;;;21.45;31.75;102542.48;110371;1261;18922;-51
2022/03/12 02:37:47;;;;;;;;;29.33;25.00;;;;;21.45;31.71;102542.48;110360;1261;19782;-48
2022/03/12 02:40:14;;;;;;;;;27.50;23.50;;;;;21.44;31.86;102538.08;110386;1261;18960;-49
2022/03/12 02:42:41;;;;;;;;;24.00;21.67;;;;;21.44;31.68;102538.27;110391;1262;18790;-48
2022/03/12 02:45:08;;;;;;;;;27.67;25.67;;;;;21.43;31.70;102536.91;110203;1262;22831;-50
2022/03/12 02:47:36;;;;;;;;;27.50;24.50;;;;;21.43;31.53;102540.94;110295;1262;18770;-50
2022/03/12 02:50:03;;;;;;;;;25.50;24.00;;;;;21.42;31.77;102540.41;110378;1261;18813;-49
2022/03/12 02:52:31;;;;;;;;;28.33;25.67;;;;;21.42;31.67;102536.65;110212;1262;22868;-46
2022/03/12 02:54:58;;;;;;;;;27.50;25.00;;;;;21.41;31.82;102533.27;110456;1262;18725;-49
2022/03/12 02:57:27;;;;;;;;;27.00;23.50;;;;;21.41;31.75;102538.49;110334;1262;21507;-49
2022/03/12 02:59:54;;;;;;;;;30.00;26.33;;;;;21.43;31.65;102540.55;110379;1262;19788;-50
2022/03/12 03:02:28;;;;;;;;;26.00;24.00;;;;;21.42;31.78;102538.41;110341;1262;19483;-50
2022/03/12 03:04:55;;;;;;;;;31.67;27.00;;;;;21.42;31.74;102540.42;110396;1262;20069;-49
2022/03/12 03:07:23;;;;;;;;;31.00;26.50;;;;;21.43;31.62;102545.27;110459;1261;20410;-50
2022/03/12 03:09:50;;;;;;;;;28.67;23.67;;;;;21.43;31.84;102547.96;110436;1262;18702;-50
2022/03/12 03:12:19;;;;;;;;;31.50;25.00;;;;;21.42;31.74;102548.98;110338;1262;18908;-49
2022/03/12 03:14:47;;;;;;;;;25.00;23.33;;;;;21.42;31.89;102549.31;110398;1261;19426;-50
2022/03/12 03:17:14;;;;;;;;;28.00;24.00;;;;;21.42;31.49;102545.70;110301;1262;18809;-49
2022/03/12 03:19:42;;;;;;;;;32.50;27.50;;;;;21.42;31.71;102545.53;110256;1262;18788;-51
2022/03/12 03:22:09;;;;;;;;;25.33;24.00;;;;;21.41;31.79;102545.77;110317;1261;19912;-49
2022/03/12 03:24:36;;;;;;;;;22.67;19.67;;;;;21.41;31.66;102544.20;110316;1261;22180;-49
2022/03/12 03:27:03;;;;;;;;;27.50;25.00;;;;;21.41;31.68;102542.89;110337;1262;18871;-50
2022/03/12 03:29:31;;;;;;;;;24.00;23.00;;;;;21.41;31.64;102541.60;110284;1262;19633;-49
2022/03/12 03:32:00;;;;;;;;;28.33;24.33;;;;;21.40;31.66;102537.02;110307;1262;18777;-50
2022/03/12 03:34:27;;;;;;;;;24.00;23.33;;;;;21.39;31.75;102537.58;110282;1262;18949;-49
2022/03/12 03:36:55;;;;;;;;;24.67;24.00;;;;;21.39;31.74;102536.85;110351;1262;19497;-50
2022/03/12 03:39:22;;;;;;;;;28.00;23.33;;;;;21.39;31.68;102535.63;110291;1261;20918;-50
2022/03/12 03:41:49;;;;;;;;;26.00;24.00;;;;;21.39;31.73;102539.21;110317;1262;18863;-48
2022/03/12 03:44:17;;;;;;;;;29.00;24.00;;;;;21.39;31.73;102534.19;110352;1262;23065;-50
2022/03/12 03:46:44;;;;;;;;;26.00;23.67;;;;;21.38;31.67;102535.37;110336;1262;18950;-49
2022/03/12 03:49:11;;;;;;;;;28.00;25.00;;;;;21.37;31.61;102534.36;110457;1262;20983;-49
2022/03/12 03:51:42;;;;;;;;;26.33;24.33;;;;;21.37;31.56;102529.05;110330;1262;22928;-53
2022/03/12 03:54:09;;;;;;;;;25.00;24.00;;;;;21.35;31.61;102526.88;110301;1262;19094;-49
2022/03/12 03:56:37;;;;;;;;;31.00;27.00;;;;;21.35;31.61;102522.86;110291;1262;18995;-49
2022/03/12 03:59:04;;;;;;;;;25.00;24.50;;;;;21.36;31.74;102523.30;110263;1262;19414;-49
2022/03/12 04:01:32;;;;;;;;;24.00;24.00;;;;;21.36;31.53;102525.16;110379;1262;18720;-48
2022/03/12 04:04:00;;;;;;;;;29.67;27.00;;;;;21.35;31.72;102521.41;110349;1262;18875;-49
2022/03/12 04:06:27;;;;;;;;;27.00;24.50;;;;;21.35;31.83;102519.45;110307;1262;19564;-49
2022/03/12 04:08:55;;;;;;;;;22.67;22.67;;;;;21.34;31.89;102521.50;110318;1262;18782;-49
2022/03/12 04:11:23;;;;;;;;;25.67;24.33;;;;;21.35;31.69;102526.34;110298;1262;18991;-50
2022/03/12 04:13:50;;;;;;;;;30.67;26.67;;;;;21.34;31.78;102520.39;110270;1262;19858;-50
2022/03/12 04:16:18;;;;;;;;;32.00;27.50;;;;;21.34;31.73;102518.06;110308;1262;18771;-50
2022/03/12 04:18:46;;;;;;;;;30.67;24.67;;;;;21.34;31.69;102523.90;110325;1262;19537;-49
2022/03/12 04:21:13;;;;;;;;;28.00;24.50;;;;;21.34;31.70;102529.16;110286;1262;19637;-48
2022/03/12 04:23:41;;;;;;;;;28.00;25.00;;;;;21.35;31.86;102528.18;110317;1262;18756;-49
2022/03/12 04:26:09;;;;;;;;;32.67;27.67;;;;;21.36;31.76;102529.38;110317;1262;19977;-49
2022/03/12 04:28:38;;;;;;;;;25.00;24.33;;;;;21.36;31.62;102532.06;110253;1262;19339;-48
2022/03/12 04:31:05;;;;;;;;;28.00;27.00;;;;;21.35;31.68;102531.77;110342;1262;20184;-51
2022/03/12 04:33:32;;;;;;;;;28.00;27.00;;;;;21.35;31.59;102534.14;110353;1261;18891;-50
2022/03/12 04:35:59;;;;;;;;;28.00;24.00;;;;;21.34;31.64;102530.92;110341;1261;19637;-51
2022/03/12 04:38:27;;;;;;;;;31.50;26.00;;;;;21.35;31.64;102531.24;110297;1262;18759;-49
2022/03/12 04:40:55;;;;;;;;;25.00;24.33;;;;;21.35;31.64;102532.16;110200;1262;18807;-47
2022/03/12 04:43:22;;;;;;;;;30.67;27.67;;;;;21.34;31.76;102530.80;110421;1262;20390;-49
2022/03/12 04:45:50;;;;;;;;;27.33;27.00;;;;;21.34;31.67;102534.92;110340;1262;18735;-49
2022/03/12 04:48:17;;;;;;;;;32.00;26.33;;;;;21.35;31.74;102536.13;110331;1261;18824;-49
2022/03/12 04:50:44;;;;;;;;;28.67;24.00;;;;;21.35;31.74;102531.42;110374;1261;19544;-49
2022/03/12 04:53:12;;;;;;;;;24.00;23.00;;;;;21.34;31.48;102525.89;110309;1262;18802;-50
2022/03/12 04:55:39;;;;;;;;;26.33;25.00;;;;;21.33;31.80;102529.60;110355;1262;18922;-50
2022/03/12 04:58:07;;;;;;;;;27.00;23.00;;;;;21.33;31.67;102531.78;110366;1262;21995;-48
2022/03/12 05:00:38;;;;;;;;;27.67;25.00;;;;;21.32;31.82;102531.84;110372;1261;18792;-50
2022/03/12 05:03:07;;;;;;;;;29.00;26.33;;;;;21.32;31.77;102532.95;110357;1262;19100;-50
2022/03/12 05:05:34;;;;;;;;;27.67;25.00;;;;;21.32;31.75;102530.74;110349;1261;19775;-49
2022/03/12 05:08:02;;;;;;;;;29.00;27.33;;;;;21.31;31.83;102525.43;110326;1261;18734;-50
2022/03/12 05:10:29;;;;;;;;;27.00;24.00;;;;;21.32;31.70;102532.04;110322;1261;19020;-49
2022/03/12 05:12:58;;;;;;;;;26.00;25.67;;;;;21.32;31.77;102536.00;110327;1262;19760;-49
2022/03/12 05:15:25;;;;;;;;;29.00;24.00;;;;;21.31;31.59;102534.85;110314;1262;18804;-50
2022/03/12 05:17:56;;;;;;;;;25.00;23.67;;;;;21.30;31.67;102536.19;110369;1262;18790;-49
2022/03/12 05:20:23;;;;;;;;;25.00;24.50;;;;;21.30;31.78;102532.76;110330;1262;20072;-49
2022/03/12 05:22:51;;;;;;;;;28.00;25.00;;;;;21.30;31.68;102527.88;110254;1262;18881;-49
2022/03/12 05:25:19;;;;;;;;;26.33;26.33;;;;;21.29;31.66;102532.17;110468;1262;20702;-49
2022/03/12 05:27:46;;;;;;;;;28.33;25.33;;;;;21.29;31.56;102536.48;110323;1262;19618;-51
2022/03/12 05:30:13;;;;;;;;;29.67;28.00;;;;;21.30;31.44;102534.58;110316;1262;18749;-49
2022/03/12 05:32:40;;;;;;;;;28.33;25.67;;;;;21.30;31.60;102532.83;110329;1262;18834;-49
2022/03/12 05:35:07;;;;;;;;;28.33;25.33;;;;;21.30;31.58;102534.05;110274;1262;20396;-50
2022/03/12 05:37:36;;;;;;;;;27.67;24.33;;;;;21.29;31.51;102532.84;110296;1262;18740;-49
2022/03/12 05:40:04;;;;;;;;;29.00;25.50;;;;;21.30;31.68;102531.90;110477;1262;21099;-50
2022/03/12 05:42:32;;;;;;;;;30.33;27.00;;;;;21.29;31.51;102531.71;110394;1261;19547;-49
2022/03/12 05:44:59;;;;;;;;;28.67;24.33;;;;;21.29;31.61;102533.70;110316;1261;21863;-51
2022/03/12 05:47:26;;;;;;;;;29.50;24.00;;;;;21.29;31.57;102531.02;110379;1262;18935;-50
2022/03/12 05:49:54;;;;;;;;;27.00;24.00;;;;;21.30;31.62;102525.36;110404;1261;19640;-50
2022/03/12 05:52:21;;;;;;;;;26.67;22.67;;;;;21.32;31.68;102525.86;110479;1262;18872;-49
2022/03/12 05:54:48;;;;;;;;;24.67;23.33;;;;;21.34;31.47;102523.89;110446;1261;18849;-49
2022/03/12 05:57:16;;;;;;;;;29.50;27.50;;;;;21.38;31.50;102518.65;110406;1261;19586;-51
2022/03/12 05:59:44;;;;;;;;;29.33;27.67;;;;;21.40;31.43;102518.09;110402;1262;18741;-50
2022/03/12 06:02:11;;;;;;;;;26.67;23.00;;;;;21.42;31.44;102521.88;110415;1261;18856;-50
2022/03/12 06:04:38;;;;;;;;;28.33;27.33;;;;;21.43;31.43;102518.19;110259;1263;19615;-49
2022/03/12 06:07:06;;;;;;;;;28.33;26.00;;;;;21.45;31.35;102519.48;110389;1261;18806;-51
2022/03/12 06:09:33;;;;;;;;;32.00;25.00;;;;;21.47;31.36;102515.99;110415;1261;18778;-50
2022/03/12 06:12:00;;;;;;;;;26.33;22.00;;;;;21.51;31.42;102513.21;110392;1262;19665;-49
2022/03/12 06:14:28;;;;;;;;;24.33;23.67;;;;;21.55;31.38;102508.83;110369;1262;22416;-49
2022/03/12 06:16:55;;;;;;;;;26.33;22.00;;;;;21.59;31.32;102507.79;110415;1261;19084;-51
2022/03/12 06:19:23;;;;;;;;;22.67;21.33;;;;;21.63;31.23;102506.56;110471;1261;19913;-53
2022/03/12 06:21:50;;;;;;;;;25.00;23.00;;;;;21.65;31.18;102509.40;110379;1261;18902;-53
2022/03/12 06:24:17;;;;;;;;;26.00;24.50;;;;;21.70;31.31;102507.02;110454;1261;19489;-51
2022/03/12 06:26:44;;;;;;;;;26.00;25.33;;;;;21.71;31.51;102508.36;110431;1261;19485;-52
2022/03/12 06:29:13;;;;;;;;;28.67;24.00;;;;;21.75;31.21;102507.89;110418;1262;18702;-49
2022/03/12 06:31:41;;;;;;;;;31.00;24.67;;;;;21.78;31.65;102508.20;110424;1262;18984;-51
2022/03/12 06:34:10;;;;;;;;;28.33;24.00;;;;;21.82;31.47;102509.15;110452;1261;19496;-52
2022/03/12 06:36:37;;;;;;;;;22.00;21.33;;;;;21.84;31.47;102511.45;110373;1261;18710;-51
2022/03/12 06:39:05;;;;;;;;;25.67;25.00;;;;;21.88;31.43;102512.27;110449;1261;18756;-50
2022/03/12 06:41:38;;;;;;;;;29.00;26.00;;;;;21.90;31.47;102510.37;110430;1261;19511;-49
2022/03/12 06:44:06;;;;;;;;;27.00;22.00;;;;;21.93;31.56;102511.71;110418;1262;18754;-49
2022/03/12 06:46:36;;;;;;;;;25.67;24.00;;;;;21.96;31.40;102510.20;110407;1262;23188;-49
2022/03/12 06:49:03;;;;;;;;;25.67;23.33;;;;;22.00;31.49;102515.11;110460;1261;19494;-49
2022/03/12 06:51:30;;;;;;;;;31.00;24.50;;;;;22.04;31.30;102521.08;110401;1262;18797;-49
2022/03/12 06:53:57;;;;;;;;;22.50;22.00;;;;;22.07;31.42;102525.57;110353;1262;20554;-50
2022/03/12 06:56:24;;;;;;;;;25.00;21.00;;;;;22.09;31.47;102531.17;110416;1261;19428;-50
2022/03/12 06:58:52;;;;;;;;;31.00;25.00;;;;;22.10;31.40;102530.04;110421;1261;18961;-49
2022/03/12 07:01:19;;;;;;;;;22.00;21.00;;;;;22.12;31.42;102530.42;110438;1262;18844;-48
2022/03/12 07:03:47;;;;;;;;;25.00;21.67;;;;;22.13;31.38;102527.62;110305;1261;19670;-52
2022/03/12 07:06:14;;;;;;;;;26.00;25.00;;;;;22.15;31.36;102526.32;110294;1262;22605;-50
2022/03/12 07:08:41;;;;;;;;;25.00;19.33;;;;;22.15;31.57;102520.29;110243;1264;22816;-49
2022/03/12 07:11:10;;;;;;;;;25.67;22.00;;;;;22.19;31.71;102518.65;110397;1261;19596;-50
2022/03/12 07:13:37;;;;;;;;;22.00;20.67;;;;;22.21;31.82;102517.35;110436;1262;18863;-51
2022/03/12 07:16:04;;;;;;;;;26.00;22.33;;;;;22.22;31.92;102520.53;110448;1262;18992;-51
2022/03/12 07:18:32;;;;;;;;;25.67;22.67;;;;;22.26;31.89;102513.84;110377;1262;19855;-51
2022/03/12 07:20:59;;;;;;;;;26.33;24.33;;;;;22.31;32.00;102509.31;110408;1262;19137;-50
2022/03/12 07:23:26;;;;;;;;;26.33;23.33;;;;;22.36;32.28;102507.05;110399;1262;20271;-50
2022/03/12 07:25:55;;;;;;;;;25.33;22.00;;;;;22.42;32.80;102503.23;110288;1262;19486;-50
2022/03/12 07:28:22;;;;;;;;;28.67;25.00;;;;;22.42;32.54;102501.16;110398;1261;19190;-52
2022/03/12 07:30:50;;;;;;;;;28.00;26.33;;;;;22.39;32.34;102499.83;110355;1261;18992;-50
2022/03/12 07:33:17;;;;;;;;;28.50;22.50;;;;;22.43;32.54;102500.88;110293;1262;19622;-50
2022/03/12 07:35:44;;;;;;;;;29.00;25.00;;;;;22.49;32.86;102499.95;110302;1261;22673;-51
2022/03/12 07:38:11;;;;;;;;;26.00;22.00;;;;;22.52;33.27;102496.54;110435;1262;18814;-51
2022/03/12 07:40:39;;;;;;;;;23.00;22.50;;;;;22.53;33.44;102493.77;110317;1262;19510;-48
2022/03/12 07:43:07;;;;;;;;;28.67;25.00;;;;;22.54;33.27;102490.20;110345;1262;18760;-51
2022/03/12 07:45:34;;;;;;;;;26.00;21.67;;;;;22.61;33.27;102487.48;110326;1262;18901;-49
2022/03/12 07:48:02;;;;;;;;;24.50;21.50;;;;;22.63;33.39;102481.83;110321;1261;19652;-51
2022/03/12 07:50:29;;;;;;;;;26.67;22.67;;;;;22.71;33.58;102484.58;110394;1261;19069;-50
2022/03/12 07:52:57;;;;;;;;;27.00;26.00;;;;;22.77;33.49;102482.18;110247;1262;18985;-50
2022/03/12 07:55:24;;;;;;;;;26.00;24.67;;;;;22.78;33.58;102479.18;110290;1261;19788;-48
2022/03/12 07:57:51;;;;;;;;;27.00;23.67;;;;;22.86;33.61;102473.29;110359;1261;18749;-49
2022/03/12 08:00:19;;;;;;;;;29.33;23.00;;;;;22.87;33.69;102467.90;110345;1262;20276;-49
2022/03/12 08:02:46;;;;;;;;;27.00;22.67;;;;;22.87;33.63;102465.17;110298;1262;19586;-49
2022/03/12 08:05:15;;;;;;;;;28.33;23.33;;;;;22.87;33.81;102466.21;110364;1262;18871;-50
2022/03/12 08:07:43;;;;;;;;;27.33;24.00;;;;;22.89;33.78;102464.98;110269;1262;18869;-51
2022/03/12 08:10:10;;;;;;;;;26.33;23.33;;;;;22.93;34.08;102464.73;110323;1262;19449;-50
2022/03/12 08:12:38;;;;;;;;;24.00;23.00;;;;;22.96;33.85;102464.30;110396;1261;18753;-50
2022/03/12 08:15:07;;;;;;;;;24.67;22.67;;;;;22.96;33.80;102456.08;110401;1262;18930;-50
2022/03/12 08:17:34;;;;;;;;;24.67;22.33;;;;;22.93;33.63;102455.58;110295;1261;19632;-51
2022/03/12 08:20:03;;;;;;;;;24.00;22.00;;;;;22.89;33.52;102454.23;110313;1261;18738;-50
2022/03/12 08:22:31;;;;;;;;;27.00;25.67;;;;;22.85;33.39;102452.43;110341;1262;19129;-49
2022/03/12 08:24:58;;;;;;;;;26.33;23.00;;;;;22.83;33.32;102452.98;110225;1262;19457;-49
2022/03/12 08:27:25;;;;;;;;;24.67;23.00;;;;;22.82;33.20;102454.66;110102;1262;18722;-49
2022/03/12 08:29:53;;;;;;;;;24.00;20.00;;;;;22.84;33.30;102450.98;110191;1261;18835;-50
2022/03/12 08:32:20;;;;;;;;;31.00;26.00;;;;;22.84;33.25;102448.42;110268;1262;19611;-51
2022/03/12 08:34:47;;;;;;;;;22.00;19.33;;;;;22.86;33.42;102452.66;110255;1262;18831;-49
2022/03/12 08:37:15;;;;;;;;;23.00;22.00;;;;;22.90;33.36;102451.93;110319;1262;20067;-50
2022/03/12 08:39:43;;;;;;;;;28.00;24.00;;;;;22.93;33.15;102455.59;110257;1262;19744;-48
2022/03/12 08:42:10;;;;;;;;;27.00;24.33;;;;;22.91;33.14;102459.31;110317;1262;18798;-49
2022/03/12 08:44:39;;;;;;;;;27.33;25.67;;;;;22.86;33.01;102462.53;110282;1262;18949;-50
2022/03/12 08:47:07;;;;;;;;;22.00;20.33;;;;;22.82;33.02;102461.98;110265;1262;22108;-49
2022/03/12 08:49:35;;;;;;;;;28.00;27.00;;;;;22.79;33.04;102468.44;110314;1262;19089;-48
2022/03/12 08:52:02;;;;;;;;;23.00;23.00;;;;;22.79;32.95;102468.48;110339;1262;22380;-50
2022/03/12 08:54:30;;;;;;;;;23.00;20.00;;;;;22.78;32.99;102471.85;110290;1262;19556;-50
2022/03/12 08:56:57;;;;;;;;;30.00;23.67;;;;;22.79;33.14;102469.77;110373;1262;20336;-50
2022/03/12 08:59:24;;;;;;;;;27.00;26.00;;;;;22.81;32.89;102472.63;110397;1262;18820;-51
2022/03/12 09:01:52;;;;;;;;;26.33;23.33;;;;;22.80;32.97;102467.05;110379;1261;22884;-46
2022/03/12 09:04:19;;;;;;;;;26.50;25.50;;;;;22.81;33.07;102466.79;110308;1262;18749;-51
2022/03/12 09:06:47;;;;;;;;;27.00;23.00;;;;;22.83;32.96;102466.09;110264;1262;19297;-49
2022/03/12 09:09:15;;;;;;;;;24.67;23.33;;;;;22.82;32.86;102465.23;110365;1261;19899;-50
2022/03/12 09:11:43;;;;;;;;;23.67;23.00;;;;;22.80;33.22;102458.17;110351;1261;18836;-51
2022/03/12 09:14:10;;;;;;;;;27.67;24.00;;;;;22.79;32.99;102459.17;110342;1262;18870;-50
2022/03/12 09:16:38;;;;;;;;;26.00;23.50;;;;;22.79;33.04;102454.23;110379;1262;19531;-50
2022/03/12 09:19:05;;;;;;;;;23.50;21.50;;;;;22.80;32.90;102452.39;110427;1261;18753;-51
2022/03/12 09:21:32;;;;;;;;;23.00;22.50;;;;;22.80;32.92;102445.77;110316;1262;20152;-50
2022/03/12 09:24:00;;;;;;;;;23.00;23.00;;;;;22.81;32.88;102449.13;110304;1262;19443;-49
2022/03/12 09:26:27;;;;;;;;;23.50;21.50;;;;;22.79;32.90;102446.23;110342;1262;20590;-51
2022/03/12 09:28:54;;;;;;;;;22.67;20.00;;;;;22.78;32.79;102446.30;110357;1261;18977;-52
2022/03/12 09:31:22;;;;;;;;;27.33;23.33;;;;;22.80;32.95;102441.73;110361;1262;19665;-51
2022/03/12 09:33:49;;;;;;;;;24.00;22.00;;;;;22.79;32.95;102439.64;110292;1262;18833;-49
2022/03/12 09:36:16;;;;;;;;;20.33;20.00;;;;;22.77;32.86;102445.89;110258;1262;19157;-50
2022/03/12 09:38:44;;;;;;;;;25.67;22.33;;;;;22.73;32.98;102436.07;110340;1262;19486;-49
2022/03/12 09:41:11;;;;;;;;;26.00;22.00;;;;;22.69;32.97;102435.90;110378;1262;18766;-51
2022/03/12 09:43:38;;;;;;;;;22.50;22.50;;;;;22.66;32.97;102438.35;110287;1262;20402;-49
2022/03/12 09:46:05;;;;;;;;;20.67;19.00;;;;;22.63;32.95;102436.31;110397;1262;20940;-49
2022/03/12 09:48:33;;;;;;;;;25.67;22.00;;;;;22.60;33.05;102435.70;110354;1262;18805;-50
2022/03/12 09:51:01;;;;;;;;;23.67;22.67;;;;;22.57;32.94;102435.17;110348;1261;18763;-50
2022/03/12 09:53:28;;;;;;;;;23.67;22.00;;;;;22.57;32.96;102437.45;110352;1261;21215;-50
2022/03/12 09:55:55;;;;;;;;;21.00;19.00;;;;;22.54;33.03;102433.85;110395;1262;18798;-50
2022/03/12 09:58:23;;;;;;;;;25.33;22.67;;;;;22.53;32.99;102430.66;110377;1262;19064;-51
2022/03/12 10:00:50;;;;;;;;;27.00;22.00;;;;;22.53;33.05;102423.23;110273;1262;19643;-49
2022/03/12 10:03:18;;;;;;;;;22.00;21.00;;;;;22.56;33.25;102422.77;110330;1262;18797;-50
2022/03/12 10:05:45;;;;;;;;;22.33;19.33;;;;;22.66;33.33;102426.32;110161;1262;18871;-50
2022/03/12 10:08:12;;;;;;;;;28.33;26.00;;;;;22.54;32.15;102434.67;110321;1261;19535;-50
2022/03/12 10:10:39;;;;;;;;;32.33;27.33;;;;;22.26;30.71;102431.09;110328;1262;19997;-49
2022/03/12 10:13:07;;;;;;;;;31.33;29.00;;;;;22.04;29.83;102426.96;110371;1262;19962;-52
2022/03/12 10:15:34;;;;;;;;;25.33;22.00;;;;;22.01;30.28;102425.11;110113;1261;20434;-49
2022/03/12 10:18:02;;;;;;;;;27.00;22.50;;;;;22.04;28.64;102426.64;110176;1261;22820;-49
2022/03/12 10:20:30;;;;;;;;;32.00;24.00;;;;;21.97;26.92;102423.45;110117;1262;18862;-48
2022/03/12 10:22:57;;;;;;;;;28.00;23.00;;;;;21.91;26.38;102415.50;110167;1261;19886;-50
2022/03/12 10:25:24;;;;;;;;;25.33;22.33;;;;;21.87;25.50;102408.59;110323;1261;19502;-50
2022/03/12 10:27:52;;;;;;;;;25.00;23.00;;;;;21.90;25.96;102406.08;110247;1261;19144;-49
2022/03/12 10:30:19;;;;;;;;;28.00;25.00;;;;;21.88;25.47;102411.22;110271;1262;20937;-49
2022/03/12 10:32:46;;;;;;;;;29.33;25.67;;;;;21.81;24.10;102406.56;110322;1262;18987;-51
2022/03/12 10:35:14;;;;;;;;;27.33;24.00;;;;;21.73;23.49;102405.55;110205;1262;18970;-49
2022/03/12 10:37:41;;;;;;;;;25.00;22.67;;;;;21.68;22.99;102400.93;110287;1262;19422;-50
2022/03/12 10:40:08;;;;;;;;;26.00;24.00;;;;;21.66;23.00;102399.84;110333;1262;18985;-52
2022/03/12 10:42:36;;;;;;;;;23.33;22.00;;;;;21.69;23.24;102397.40;110365;1262;18858;-50
2022/03/12 10:45:03;;;;;;;;;29.00;23.67;;;;;21.72;23.37;102402.16;110308;1262;22540;-50
2022/03/12 10:47:30;;;;;;;;;22.00;22.00;;;;;21.72;23.27;102403.09;110384;1261;18666;-49
2022/03/12 10:49:58;;;;;;;;;27.00;25.00;;;;;21.72;23.25;102401.56;110396;1261;18762;-50
2022/03/12 10:52:25;;;;;;;;;29.33;26.00;;;;;21.65;22.90;102401.02;110448;1262;19542;-50
2022/03/12 10:54:52;;;;;;;;;25.33;23.67;;;;;21.63;22.83;102403.59;110210;1261;18789;-49
2022/03/12 10:57:20;;;;;;;;;28.00;26.00;;;;;21.60;23.09;102395.79;110229;1261;19206;-48
2022/03/12 10:59:47;;;;;;;;;30.67;26.00;;;;;21.56;23.15;102389.97;110240;1261;19527;-49
2022/03/12 11:02:15;;;;;;;;;28.67;25.67;;;;;21.63;23.58;102389.89;110307;1262;18857;-49
2022/03/12 11:04:42;;;;;;;;;32.33;26.33;;;;;21.75;23.87;102385.17;110190;1261;19267;-50